createdAt,value
2022-12-04T00:01:08.195Z,34.80
2022-12-04T00:03:35.557Z,39.60
2022-12-04T00:06:07.506Z,36.60
2022-12-04T00:08:34.857Z,37.17
2022-12-04T00:11:03.677Z,35.23
2022-12-04T00:13:30.465Z,38.00
2022-12-04T00:15:57.361Z,35.20
2022-12-04T00:18:24.220Z,35.47
2022-12-04T00:20:51.325Z,34.80
2022-12-04T00:23:18.200Z,34.80
2022-12-04T00:25:48.657Z,35.40
2022-12-04T00:28:19.268Z,33.20
2022-12-04T00:30:46.340Z,36.43
2022-12-04T00:33:14.079Z,36.30
2022-12-04T00:35:41.010Z,37.30
2022-12-04T00:38:07.902Z,36.47
2022-12-04T00:40:35.044Z,35.37
2022-12-04T00:43:01.875Z,36.17
2022-12-04T00:45:28.857Z,34.90
2022-12-04T00:47:55.739Z,37.30
2022-12-04T00:50:22.706Z,36.13
2022-12-04T00:52:49.669Z,34.80
2022-12-04T00:55:16.513Z,35.40
2022-12-04T00:57:43.358Z,37.00
2022-12-04T01:00:10.450Z,38.50
2022-12-04T01:02:37.323Z,36.27
2022-12-04T01:05:04.460Z,37.13
2022-12-04T01:07:31.267Z,38.10
2022-12-04T01:09:58.220Z,38.27
2022-12-04T01:12:25.095Z,37.97
2022-12-04T01:14:51.870Z,38.63
2022-12-04T01:17:18.689Z,37.17
2022-12-04T01:19:45.650Z,39.07
2022-12-04T01:22:12.427Z,37.17
2022-12-04T01:24:39.229Z,38.33
2022-12-04T01:27:05.988Z,38.70
2022-12-04T01:29:32.811Z,38.07
2022-12-04T01:31:59.771Z,39.40
2022-12-04T01:34:26.627Z,36.63
2022-12-04T01:36:53.547Z,37.97
2022-12-04T01:39:20.345Z,39.20
2022-12-04T01:41:47.330Z,39.50
2022-12-04T01:44:14.079Z,38.90
2022-12-04T01:46:42.830Z,39.43
2022-12-04T01:49:14.555Z,39.67
2022-12-04T01:51:46.046Z,39.47
2022-12-04T01:54:28.501Z,40.83
2022-12-04T01:57:03.068Z,39.93
2022-12-04T01:59:35.264Z,38.30
2022-12-04T02:02:09.682Z,39.80
2022-12-04T02:04:38.505Z,39.73
2022-12-04T02:07:05.426Z,38.87
2022-12-04T02:09:33.185Z,38.43
2022-12-04T02:12:15.013Z,39.37
2022-12-04T02:14:48.863Z,38.23
2022-12-04T02:17:24.242Z,36.93
2022-12-04T02:20:06.109Z,40.47
2022-12-04T02:23:23.465Z,39.30
2022-12-04T02:25:58.828Z,38.27
2022-12-04T02:28:32.576Z,37.90
2022-12-04T02:31:01.630Z,37.87
2022-12-04T02:33:44.395Z,39.83
2022-12-04T02:36:33.038Z,38.37
2022-12-04T02:39:18.210Z,38.70
2022-12-04T02:42:16.713Z,39.33
2022-12-04T02:44:49.353Z,38.80
2022-12-04T02:47:21.117Z,38.43
2022-12-04T02:50:03.103Z,38.63
2022-12-04T02:52:38.023Z,38.60
2022-12-04T02:55:16.446Z,40.03
2022-12-04T02:57:48.755Z,38.37
2022-12-04T03:00:16.476Z,38.60
2022-12-04T03:03:07.585Z,39.43
2022-12-04T03:05:44.545Z,39.70
2022-12-04T03:08:17.244Z,40.03
2022-12-04T03:10:52.939Z,38.20
2022-12-04T03:13:28.959Z,38.77
2022-12-04T03:16:14.341Z,38.10
2022-12-04T03:18:56.570Z,44.43
2022-12-04T03:21:28.106Z,48.37
2022-12-04T03:24:23.977Z,74.07
2022-12-04T03:27:15.024Z,43.27
2022-12-04T03:29:48.303Z,43.90
2022-12-04T03:32:34.411Z,38.47
2022-12-04T03:35:25.274Z,42.63
2022-12-04T03:38:01.205Z,48.13
2022-12-04T03:40:54.415Z,42.03
2022-12-04T03:43:33.027Z,38.07
2022-12-04T03:46:08.132Z,40.90
2022-12-04T03:49:23.093Z,41.30
2022-12-04T03:52:02.021Z,37.83
2022-12-04T03:54:37.119Z,38.00
2022-12-04T03:57:11.208Z,38.80
2022-12-04T03:59:48.896Z,38.17
2022-12-04T04:02:23.017Z,37.97
2022-12-04T04:04:54.714Z,39.60
2022-12-04T04:07:33.518Z,37.57
2022-12-04T04:10:10.770Z,37.40
2022-12-04T04:12:42.431Z,37.93
2022-12-04T04:15:32.600Z,38.63
2022-12-04T04:18:20.713Z,44.40
2022-12-04T04:21:12.943Z,42.10
2022-12-04T04:24:02.980Z,39.53
2022-12-04T04:26:34.517Z,37.20
2022-12-04T04:29:01.475Z,43.13
2022-12-04T04:31:47.640Z,37.80
2022-12-04T04:34:23.266Z,38.47
2022-12-04T04:37:08.420Z,38.07
2022-12-04T04:39:40.166Z,37.73
2022-12-04T04:42:22.563Z,37.53
2022-12-04T04:44:54.832Z,39.83
2022-12-04T04:47:38.642Z,37.73
2022-12-04T04:50:08.627Z,38.80
2022-12-04T04:52:37.662Z,39.70
2022-12-04T04:55:05.751Z,38.30
2022-12-04T04:57:38.339Z,37.40
2022-12-04T05:00:12.845Z,39.10
2022-12-04T05:02:39.887Z,43.50
2022-12-04T05:05:07.366Z,38.47
2022-12-04T05:07:34.199Z,39.70
2022-12-04T05:10:01.193Z,39.43
2022-12-04T05:12:27.946Z,53.57
2022-12-04T05:14:54.744Z,41.70
2022-12-04T05:17:21.563Z,38.33
2022-12-04T05:19:55.007Z,36.67
2022-12-04T05:22:23.930Z,37.03
2022-12-04T05:24:50.831Z,38.00
2022-12-04T05:27:17.587Z,38.63
2022-12-04T05:29:44.471Z,37.97
2022-12-04T05:32:11.332Z,37.13
2022-12-04T05:34:38.227Z,36.83
2022-12-04T05:37:05.001Z,37.57
2022-12-04T05:39:31.821Z,37.60
2022-12-04T05:41:58.565Z,37.13
2022-12-04T05:44:25.420Z,36.77
2022-12-04T05:46:52.315Z,38.27
2022-12-04T05:49:19.125Z,37.50
2022-12-04T05:51:45.934Z,35.27
2022-12-04T05:54:12.848Z,37.77
2022-12-04T05:56:39.658Z,35.67
2022-12-04T05:59:06.426Z,37.47
2022-12-04T06:01:33.585Z,37.37
2022-12-04T06:04:00.408Z,39.00
2022-12-04T06:06:27.483Z,36.53
2022-12-04T06:08:56.531Z,37.47
2022-12-04T06:11:36.089Z,36.27
2022-12-04T06:14:05.982Z,36.50
2022-12-04T06:16:36.300Z,36.40
2022-12-04T06:19:06.764Z,36.40
2022-12-04T06:21:36.523Z,36.87
2022-12-04T06:24:03.737Z,36.33
2022-12-04T06:26:30.598Z,37.30
2022-12-04T06:28:58.971Z,37.60
2022-12-04T06:31:27.876Z,36.83
2022-12-04T06:33:55.857Z,35.57
2022-12-04T06:36:23.146Z,36.07
2022-12-04T06:38:51.523Z,37.13
2022-12-04T06:41:20.620Z,38.23
2022-12-04T06:43:48.608Z,38.07
2022-12-04T06:46:18.964Z,36.23
2022-12-04T06:48:46.569Z,37.97
2022-12-04T06:51:16.235Z,36.73
2022-12-04T06:53:43.900Z,37.77
2022-12-04T06:56:14.357Z,35.90
2022-12-04T06:58:41.194Z,36.90
2022-12-04T07:01:10.814Z,36.17
2022-12-04T07:03:38.686Z,38.13
2022-12-04T07:06:16.383Z,37.63
2022-12-04T07:08:45.000Z,36.37
2022-12-04T07:11:12.746Z,38.23
2022-12-04T07:13:40.097Z,36.10
2022-12-04T07:16:08.716Z,38.03
2022-12-04T07:18:36.453Z,39.37
2022-12-04T07:21:13.576Z,37.90
2022-12-04T07:23:40.550Z,38.20
2022-12-04T07:26:09.695Z,36.80
2022-12-04T07:28:37.647Z,36.10
2022-12-04T07:31:06.084Z,36.40
2022-12-04T07:33:33.028Z,36.10
2022-12-04T07:36:02.430Z,38.03
2022-12-04T07:38:30.962Z,36.87
2022-12-04T07:40:59.369Z,38.00
2022-12-04T07:43:27.178Z,36.90
2022-12-04T07:45:54.044Z,37.43
2022-12-04T07:48:21.274Z,36.97
2022-12-04T07:50:48.445Z,37.37
2022-12-04T07:53:15.403Z,37.83
2022-12-04T07:55:42.365Z,36.33
2022-12-04T07:58:09.335Z,35.87
2022-12-04T08:00:36.119Z,36.47
2022-12-04T08:03:02.892Z,36.53
2022-12-04T08:05:29.716Z,37.17
2022-12-04T08:07:56.546Z,37.53
2022-12-04T08:10:23.297Z,35.90
2022-12-04T08:12:50.193Z,34.63
2022-12-04T08:15:17.019Z,36.20
2022-12-04T08:17:43.836Z,36.77
2022-12-04T08:20:10.996Z,37.37
2022-12-04T08:22:37.782Z,35.97
2022-12-04T08:25:04.909Z,36.30
2022-12-04T08:27:31.778Z,35.23
2022-12-04T08:29:58.628Z,36.13
2022-12-04T08:32:25.452Z,35.87
2022-12-04T08:34:55.725Z,36.53
2022-12-04T08:37:22.930Z,36.07
2022-12-04T08:39:49.676Z,36.10
2022-12-04T08:42:16.472Z,36.23
2022-12-04T08:44:43.218Z,36.77
2022-12-04T08:47:09.980Z,35.53
2022-12-04T08:49:36.749Z,36.87
2022-12-04T08:52:03.630Z,39.07
2022-12-04T08:54:35.821Z,36.60
2022-12-04T08:57:03.660Z,35.83
2022-12-04T08:59:30.469Z,36.13
2022-12-04T09:01:57.621Z,35.57
2022-12-04T09:04:24.495Z,36.93
2022-12-04T09:06:51.268Z,36.97
2022-12-04T09:09:18.117Z,36.13
2022-12-04T09:11:46.441Z,34.63
2022-12-04T09:14:13.366Z,34.17
2022-12-04T09:16:40.136Z,36.10
2022-12-04T09:19:06.954Z,34.93
2022-12-04T09:21:33.770Z,32.63
2022-12-04T09:24:00.584Z,36.10
2022-12-04T09:26:32.637Z,35.13
2022-12-04T09:29:01.863Z,35.73
2022-12-04T09:31:29.327Z,37.57
2022-12-04T09:33:59.231Z,39.10
2022-12-04T09:36:26.022Z,41.10
2022-12-04T09:38:53.916Z,40.07
2022-12-04T09:41:20.617Z,53.97
2022-12-04T09:44:03.440Z,37.13
2022-12-04T09:46:41.077Z,35.57
2022-12-04T09:49:17.550Z,35.80
2022-12-04T09:51:45.196Z,36.40
2022-12-04T09:54:19.551Z,35.03
2022-12-04T09:56:59.006Z,37.77
2022-12-04T09:59:28.017Z,36.80
2022-12-04T10:02:22.851Z,38.10
2022-12-04T10:04:49.883Z,35.53
2022-12-04T10:07:22.500Z,35.10
2022-12-04T10:10:00.347Z,34.73
2022-12-04T10:12:35.887Z,34.33
2022-12-04T10:15:36.752Z,33.77
2022-12-04T10:18:33.396Z,35.10
2022-12-04T10:21:11.417Z,34.33
2022-12-04T10:23:47.059Z,33.17
2022-12-04T10:26:17.744Z,33.73
2022-12-04T10:28:55.282Z,34.37
2022-12-04T10:31:24.657Z,32.60
2022-12-04T10:33:56.591Z,33.07
2022-12-04T10:36:28.167Z,33.10
2022-12-04T10:39:16.433Z,33.57
2022-12-04T10:42:11.250Z,33.33
2022-12-04T10:44:39.094Z,33.63
2022-12-04T10:47:06.867Z,32.63
2022-12-04T10:49:36.122Z,32.87
2022-12-04T10:52:03.980Z,33.80
2022-12-04T10:54:43.009Z,38.23
2022-12-04T10:57:12.298Z,38.87
2022-12-04T10:59:53.934Z,32.60
2022-12-04T11:02:25.757Z,34.00
2022-12-04T11:05:22.007Z,34.30
2022-12-04T11:07:51.156Z,31.97
2022-12-04T11:10:35.589Z,32.93
2022-12-04T11:13:04.283Z,33.73
2022-12-04T11:15:32.440Z,33.37
2022-12-04T11:18:28.737Z,32.47
2022-12-04T11:21:00.359Z,34.03
2022-12-04T11:23:31.455Z,33.60
2022-12-04T11:26:05.476Z,31.80
2022-12-04T11:28:41.518Z,31.97
2022-12-04T11:31:10.906Z,31.77
2022-12-04T11:33:46.277Z,30.80
2022-12-04T11:36:26.689Z,30.40
2022-12-04T11:39:03.859Z,30.93
2022-12-04T11:41:32.739Z,29.80
2022-12-04T11:44:00.890Z,31.27
2022-12-04T11:46:31.325Z,31.10
2022-12-04T11:48:58.255Z,30.87
2022-12-04T11:51:37.004Z,31.10
2022-12-04T11:54:09.554Z,31.90
2022-12-04T11:56:41.162Z,32.97
2022-12-04T11:59:43.136Z,29.33
2022-12-04T12:02:33.176Z,28.43
2022-12-04T12:05:36.030Z,29.43
2022-12-04T12:08:34.065Z,32.57
2022-12-04T12:11:25.652Z,31.27
2022-12-04T12:13:55.377Z,30.23
2022-12-04T12:19:51.840Z,29.90
2022-12-04T12:22:58.874Z,30.00
2022-12-04T12:25:52.088Z,30.13
2022-12-04T12:28:43.292Z,38.87
2022-12-04T12:31:18.304Z,30.60
2022-12-04T12:34:08.478Z,39.77
2022-12-04T12:36:43.913Z,42.30
2022-12-04T12:39:26.105Z,30.80
2022-12-04T12:41:56.229Z,31.40
2022-12-04T12:44:30.254Z,29.60
2022-12-04T12:47:04.051Z,30.67
2022-12-04T12:49:34.930Z,31.00
2022-12-04T12:52:07.068Z,29.57
2022-12-04T12:54:39.868Z,31.07
2022-12-04T12:57:16.705Z,28.63
2022-12-04T12:59:50.199Z,28.33
2022-12-04T13:02:30.227Z,30.17
2022-12-04T13:05:19.014Z,30.10
2022-12-04T13:07:57.029Z,30.80
2022-12-04T13:10:30.368Z,29.47
2022-12-04T13:13:02.444Z,29.47
2022-12-04T13:15:55.564Z,29.50
2022-12-04T13:18:28.186Z,29.80
2022-12-04T13:20:59.029Z,31.20
2022-12-04T13:23:44.566Z,32.77
2022-12-04T13:26:40.896Z,29.63
2022-12-04T13:29:44.615Z,31.77
2022-12-04T13:32:48.568Z,29.03
2022-12-04T13:35:41.494Z,30.23
2022-12-04T13:38:33.577Z,33.07
2022-12-04T13:41:03.882Z,30.70
2022-12-04T13:43:36.616Z,29.97
2022-12-04T13:46:07.619Z,30.03
2022-12-04T13:48:42.918Z,31.17
2022-12-04T13:51:38.458Z,32.07
2022-12-04T13:54:11.350Z,32.13
2022-12-04T13:56:40.868Z,31.77
2022-12-04T13:59:26.588Z,32.67
2022-12-04T14:01:56.480Z,32.40
2022-12-04T14:04:28.728Z,32.23
2022-12-04T14:06:58.973Z,31.73
2022-12-04T14:09:41.669Z,32.40
2022-12-04T14:12:13.915Z,31.83
2022-12-04T14:14:56.188Z,32.00
2022-12-04T14:17:36.021Z,33.03
2022-12-04T14:20:21.572Z,31.87
2022-12-04T14:22:48.774Z,32.20
2022-12-04T14:25:15.479Z,33.37
2022-12-04T14:27:42.227Z,33.13
2022-12-04T14:30:30.373Z,34.13
2022-12-04T14:33:10.286Z,34.33
2022-12-04T14:36:02.605Z,33.83
2022-12-04T14:38:29.695Z,34.20
2022-12-04T14:40:58.275Z,35.53
2022-12-04T14:43:30.048Z,33.27
2022-12-04T14:46:38.205Z,35.00
2022-12-04T14:49:16.794Z,34.97
2022-12-04T14:51:51.560Z,35.77
2022-12-04T14:54:28.503Z,34.07
2022-12-04T14:56:58.314Z,35.43
2022-12-04T14:59:34.199Z,33.33
2022-12-04T15:02:01.172Z,34.30
2022-12-04T15:04:34.691Z,34.60
2022-12-04T15:07:02.701Z,34.50
2022-12-04T15:09:48.473Z,35.67
2022-12-04T15:12:35.706Z,34.67
2022-12-04T15:15:40.378Z,35.47
2022-12-04T15:18:10.130Z,33.90
2022-12-04T15:20:49.772Z,33.77
2022-12-04T15:23:33.603Z,37.83
2022-12-04T15:26:03.256Z,39.97
2022-12-04T15:28:41.973Z,36.63
2022-12-04T15:31:22.366Z,36.90
2022-12-04T15:33:54.559Z,41.80
2022-12-04T15:36:44.434Z,37.53
2022-12-04T15:39:21.675Z,35.97
2022-12-04T15:41:48.912Z,41.20
2022-12-04T15:44:28.865Z,37.00
2022-12-04T15:46:58.079Z,36.30
2022-12-04T15:49:32.964Z,37.77
2022-12-04T15:52:17.880Z,38.90
2022-12-04T15:54:54.060Z,39.20
2022-12-04T15:57:31.981Z,38.90
2022-12-04T16:00:02.731Z,37.73
2022-12-04T16:02:39.691Z,39.77
2022-12-04T16:05:21.869Z,38.10
2022-12-04T16:08:00.831Z,38.00
2022-12-04T16:10:31.354Z,39.00
2022-12-04T16:13:00.780Z,39.23
2022-12-04T16:15:34.370Z,38.13
2022-12-04T16:18:01.266Z,40.47
2022-12-04T16:20:28.091Z,39.87
2022-12-04T16:22:55.297Z,38.80
2022-12-04T16:25:22.150Z,41.93
2022-12-04T16:27:48.927Z,39.93
2022-12-04T16:30:15.824Z,40.63
2022-12-04T16:32:42.784Z,39.50
2022-12-04T16:35:16.908Z,38.67
2022-12-04T16:37:44.203Z,39.37
2022-12-04T16:40:12.473Z,40.33
2022-12-04T16:42:40.120Z,39.87
2022-12-04T16:45:33.804Z,40.47
2022-12-04T16:48:00.990Z,39.73
2022-12-04T16:50:28.172Z,39.77
2022-12-04T16:52:55.011Z,40.77
2022-12-04T16:55:37.955Z,40.00
2022-12-04T16:58:05.745Z,39.27
2022-12-04T17:00:32.918Z,40.83
2022-12-04T17:03:01.677Z,38.33
2022-12-04T17:05:32.044Z,40.07
2022-12-04T17:07:59.076Z,38.63
2022-12-04T17:10:25.931Z,40.60
2022-12-04T17:12:54.021Z,40.13
2022-12-04T17:15:21.099Z,40.17
2022-12-04T17:17:48.119Z,40.00
2022-12-04T17:20:17.792Z,41.50
2022-12-04T17:22:44.770Z,39.73
2022-12-04T17:25:12.385Z,49.50
2022-12-04T17:27:39.589Z,40.17
2022-12-04T17:30:07.902Z,44.13
2022-12-04T17:32:35.255Z,41.60
2022-12-04T17:35:03.401Z,42.77
2022-12-04T17:37:32.453Z,41.80
2022-12-04T17:39:59.722Z,40.10
2022-12-04T17:42:26.590Z,40.77
2022-12-04T17:44:53.851Z,41.67
2022-12-04T17:47:20.897Z,39.97
2022-12-04T17:49:47.687Z,40.87
2022-12-04T17:52:14.868Z,39.77
2022-12-04T17:54:41.858Z,40.27
2022-12-04T17:57:08.985Z,39.63
2022-12-04T17:59:35.909Z,41.63
2022-12-04T18:02:02.758Z,42.00
2022-12-04T18:04:29.917Z,41.30
2022-12-04T18:06:56.703Z,38.80
2022-12-04T18:09:23.478Z,41.50
2022-12-04T18:11:50.354Z,39.70
2022-12-04T18:14:21.680Z,43.17
2022-12-04T18:16:53.245Z,40.23
2022-12-04T18:19:31.031Z,37.93
2022-12-04T18:21:58.319Z,39.50
2022-12-04T18:24:25.761Z,40.70
2022-12-04T18:26:52.821Z,37.40
2022-12-04T18:29:25.305Z,40.33
2022-12-04T18:31:52.605Z,37.83
2022-12-04T18:34:20.602Z,37.23
2022-12-04T18:36:47.872Z,37.77
2022-12-04T18:39:20.609Z,37.10
2022-12-04T18:41:48.106Z,38.73
2022-12-04T18:44:15.464Z,38.83
2022-12-04T18:46:42.692Z,38.07
2022-12-04T18:49:10.641Z,39.47
2022-12-04T18:51:40.512Z,37.70
2022-12-04T18:54:12.163Z,37.27
2022-12-04T18:56:39.462Z,37.60
2022-12-04T18:59:13.719Z,37.80
2022-12-04T19:01:41.768Z,37.67
2022-12-04T19:04:11.081Z,37.10
2022-12-04T19:06:43.776Z,36.83
2022-12-04T19:09:17.618Z,36.57
2022-12-04T19:11:45.911Z,36.03
2022-12-04T19:14:22.374Z,37.33
2022-12-04T19:16:50.881Z,37.87
2022-12-04T19:19:18.271Z,37.07
2022-12-04T19:21:45.279Z,36.23
2022-12-04T19:24:12.767Z,38.27
2022-12-04T19:26:39.692Z,37.23
2022-12-04T19:29:07.481Z,37.77
2022-12-04T19:31:36.575Z,41.10
2022-12-04T19:34:04.358Z,45.13
2022-12-04T19:36:32.248Z,44.63
2022-12-04T19:38:59.755Z,38.90
2022-12-04T19:41:31.301Z,37.47
2022-12-04T19:44:00.534Z,37.13
2022-12-04T19:46:30.665Z,37.40
2022-12-04T19:49:03.786Z,36.40
2022-12-04T19:51:33.076Z,38.70
2022-12-04T19:54:01.059Z,37.10
2022-12-04T19:56:29.617Z,36.27
2022-12-04T19:58:58.997Z,37.27
2022-12-04T20:01:29.157Z,36.37
2022-12-04T20:03:56.977Z,37.57
2022-12-04T20:06:27.802Z,38.43
2022-12-04T20:08:56.914Z,38.67
2022-12-04T20:11:24.638Z,37.20
2022-12-04T20:13:55.483Z,38.40
2022-12-04T20:16:24.283Z,37.70
2022-12-04T20:18:51.716Z,38.53
2022-12-04T20:21:19.433Z,39.10
2022-12-04T20:23:49.445Z,39.27
2022-12-04T20:26:21.804Z,38.43
2022-12-04T20:28:49.127Z,38.17
2022-12-04T20:31:19.145Z,39.37
2022-12-04T20:33:48.460Z,39.23
2022-12-04T20:36:15.799Z,37.93
2022-12-04T20:38:43.022Z,38.23
2022-12-04T20:41:13.692Z,37.70
2022-12-04T20:43:40.453Z,38.00
2022-12-04T20:46:19.639Z,36.77
2022-12-04T20:48:48.884Z,38.43
2022-12-04T20:51:18.642Z,37.20
2022-12-04T20:53:46.574Z,38.07
2022-12-04T20:56:13.829Z,38.40
2022-12-04T20:58:41.040Z,38.37
2022-12-04T21:01:10.448Z,38.40
2022-12-04T21:03:37.502Z,39.13
2022-12-04T21:06:04.821Z,37.57
2022-12-04T21:08:50.195Z,37.20
2022-12-04T21:11:16.962Z,37.93
2022-12-04T21:14:02.793Z,37.60
2022-12-04T21:16:29.715Z,38.17
2022-12-04T21:18:56.560Z,38.73
2022-12-04T21:21:25.512Z,39.47
2022-12-04T21:23:52.434Z,38.33
2022-12-04T21:26:19.845Z,38.00
2022-12-04T21:28:47.229Z,39.50
2022-12-04T21:31:14.327Z,38.03
2022-12-04T21:33:41.117Z,40.23
2022-12-04T21:36:09.435Z,38.37
2022-12-04T21:38:38.076Z,37.47
2022-12-04T21:41:08.052Z,39.57
2022-12-04T21:43:36.050Z,37.30
2022-12-04T21:46:09.210Z,38.10
2022-12-04T21:48:37.123Z,39.77
2022-12-04T21:51:16.850Z,37.23
2022-12-04T21:53:55.025Z,39.97
2022-12-04T21:56:22.682Z,37.13
2022-12-04T21:58:49.721Z,37.40
2022-12-04T22:01:18.364Z,36.97
2022-12-04T22:03:45.349Z,38.77
2022-12-04T22:06:12.291Z,37.43
2022-12-04T22:08:40.741Z,36.73
2022-12-04T22:11:09.427Z,37.07
2022-12-04T22:13:37.337Z,36.43
2022-12-04T22:16:06.801Z,36.33
2022-12-04T22:18:34.753Z,37.93
2022-12-04T22:21:05.842Z,38.97
2022-12-04T22:23:32.971Z,38.07
2022-12-04T22:26:16.780Z,38.30
2022-12-04T22:28:43.894Z,37.10
2022-12-04T22:31:17.044Z,37.13
2022-12-04T22:33:49.729Z,37.13
2022-12-04T22:36:19.244Z,37.00
2022-12-04T22:39:08.144Z,38.00
2022-12-04T22:41:33.412Z,37.60
2022-12-04T22:44:00.247Z,38.20
2022-12-04T22:46:27.204Z,36.33
2022-12-04T22:48:54.277Z,38.27
2022-12-04T22:51:22.276Z,38.13
2022-12-04T22:53:52.346Z,37.67
2022-12-04T22:56:31.975Z,36.97
2022-12-04T22:58:59.787Z,38.30
2022-12-04T23:01:29.225Z,37.40
2022-12-04T23:03:56.316Z,37.87
2022-12-04T23:06:25.878Z,37.70
2022-12-04T23:09:01.052Z,39.10
2022-12-04T23:11:29.084Z,39.90
2022-12-04T23:14:01.210Z,38.40
2022-12-04T23:16:30.630Z,37.83
2022-12-04T23:18:58.167Z,38.00
2022-12-04T23:21:25.461Z,38.20
2022-12-04T23:23:54.301Z,38.13
2022-12-04T23:26:29.287Z,40.13
2022-12-04T23:28:56.378Z,38.57
2022-12-04T23:31:23.454Z,39.00
2022-12-04T23:33:50.619Z,38.87
2022-12-04T23:36:17.743Z,37.73
2022-12-04T23:38:44.975Z,38.27
2022-12-04T23:41:18.393Z,37.50
2022-12-04T23:43:46.026Z,38.07
2022-12-04T23:46:16.090Z,38.47
2022-12-04T23:48:44.295Z,38.13
2022-12-04T23:51:13.959Z,38.80
2022-12-04T23:53:41.004Z,38.13
2022-12-04T23:56:12.227Z,37.63
2022-12-04T23:58:40.050Z,40.23
